Time;durP1;ratioP1;P1;durP2;ratioP2;P2;SDS_P1;SDS_P2;PMS_P1;PMS_P2;Temp;Humidity;BMP_temperature;BMP_pressure;BME280_temperature;BME280_humidity;BME280_pressure;Samples;Min_cycle;Max_cycle;Signal;HPM_P1;HPM_P2
2022/12/31 05:05:27;;;;;;;0.87;0.63;;;15.80;99.90;;;;;;5232661;23;20557;-68
2022/12/31 05:07:53;;;;;;;0.57;0.57;;;15.80;99.90;;;;;;4996372;28;20871;-66
2022/12/31 05:10:18;;;;;;;1.17;0.40;;;15.80;99.90;;;;;;4995615;28;20164;-68
2022/12/31 05:12:44;;;;;;;0.60;0.60;;;15.70;99.90;;;;;;4996548;28;20499;-67
2022/12/31 05:15:10;;;;;;;0.50;0.50;;;15.80;99.90;;;;;;4996516;28;20196;-67
2022/12/31 05:17:36;;;;;;;1.40;0.80;;;15.80;99.90;;;;;;4996714;28;20258;-68
2022/12/31 05:20:01;;;;;;;4.30;0.60;;;15.70;99.90;;;;;;4996700;28;20229;-67
2022/12/31 05:22:30;;;;;;;0.47;0.47;;;15.70;99.90;;;;;;4996401;28;20403;-67
2022/12/31 05:24:57;;;;;;;0.77;0.60;;;15.60;99.90;;;;;;4995906;28;20436;-67
2022/12/31 05:27:23;;;;;;;0.60;0.60;;;15.50;99.90;;;;;;4996654;28;20458;-68
2022/12/31 05:29:50;;;;;;;0.40;0.40;;;15.50;99.90;;;;;;4996312;28;20411;-67
2022/12/31 05:32:16;;;;;;;0.60;0.60;;;15.50;99.90;;;;;;4996381;28;20409;-68
2022/12/31 05:34:42;;;;;;;0.60;0.60;;;15.50;99.90;;;;;;4995078;28;20426;-67
2022/12/31 05:37:07;;;;;;;0.40;0.40;;;15.50;99.90;;;;;;4996111;28;20703;-68
2022/12/31 05:39:33;;;;;;;0.60;0.60;;;15.50;99.90;;;;;;4978640;28;20419;-68
2022/12/31 05:41:58;;;;;;;0.70;0.70;;;15.40;99.90;;;;;;4996066;28;20182;-69
2022/12/31 05:44:24;;;;;;;0.70;0.63;;;15.40;99.90;;;;;;4995696;28;20588;-67
2022/12/31 05:46:49;;;;;;;0.73;0.73;;;15.30;99.90;;;;;;4995996;28;20196;-68
2022/12/31 05:49:15;;;;;;;0.40;0.40;;;15.20;99.90;;;;;;4996140;28;20203;-68
2022/12/31 05:51:41;;;;;;;0.77;0.70;;;15.20;99.90;;;;;;4996026;28;20254;-68
2022/12/31 05:54:06;;;;;;;0.80;0.63;;;15.20;99.90;;;;;;4995536;28;20195;-67
2022/12/31 05:56:32;;;;;;;0.70;0.70;;;15.20;99.90;;;;;;4995803;28;20182;-69
2022/12/31 05:58:57;;;;;;;0.60;0.60;;;15.20;99.90;;;;;;4995926;28;20257;-68
2022/12/31 06:01:23;;;;;;;0.60;0.60;;;15.20;99.90;;;;;;4995821;28;20210;-67
2022/12/31 06:03:48;;;;;;;0.47;0.47;;;15.10;99.90;;;;;;4995541;28;20226;-69
2022/12/31 06:06:14;;;;;;;0.70;0.63;;;15.10;99.90;;;;;;4995384;28;20214;-67
2022/12/31 06:08:40;;;;;;;0.50;0.50;;;15.00;99.90;;;;;;4995614;28;20171;-67
2022/12/31 06:11:05;;;;;;;0.63;0.63;;;15.00;99.90;;;;;;4995832;28;20534;-67
2022/12/31 06:13:31;;;;;;;0.67;0.67;;;14.90;99.90;;;;;;4995485;28;20633;-69
2022/12/31 06:15:56;;;;;;;0.63;0.63;;;14.90;99.90;;;;;;4995619;28;20175;-68
2022/12/31 06:18:22;;;;;;;0.73;0.60;;;14.80;99.90;;;;;;4995561;28;20634;-67
2022/12/31 06:20:48;;;;;;;0.50;0.50;;;14.80;99.90;;;;;;4995220;28;20172;-68
2022/12/31 06:23:13;;;;;;;0.50;0.50;;;14.70;99.90;;;;;;4995299;28;20265;-68
2022/12/31 06:25:39;;;;;;;0.60;0.60;;;14.70;99.90;;;;;;4995221;28;20665;-69
2022/12/31 06:28:05;;;;;;;0.60;0.60;;;14.70;99.90;;;;;;4995103;28;20338;-67
2022/12/31 06:30:31;;;;;;;0.50;0.50;;;14.80;99.90;;;;;;4995051;28;20195;-67
2022/12/31 06:32:56;;;;;;;0.70;0.70;;;14.80;99.90;;;;;;4977560;28;20500;-67
2022/12/31 06:35:22;;;;;;;0.50;0.50;;;14.80;99.90;;;;;;4977727;28;20199;-69
2022/12/31 06:37:48;;;;;;;0.60;0.60;;;14.80;99.90;;;;;;4977520;28;20176;-67
2022/12/31 06:40:13;;;;;;;0.53;0.53;;;14.80;99.90;;;;;;4995723;28;20919;-67
2022/12/31 06:42:41;;;;;;;0.60;0.50;;;14.80;99.90;;;;;;4995398;28;20258;-68
2022/12/31 06:45:07;;;;;;;0.73;0.73;;;14.90;99.90;;;;;;4977525;28;20202;-66
2022/12/31 06:47:32;;;;;;;0.67;0.67;;;14.90;99.90;;;;;;4995516;28;20458;-65
2022/12/31 06:49:58;;;;;;;1.37;0.70;;;15.00;99.90;;;;;;4995232;28;20403;-67
2022/12/31 06:52:23;;;;;;;0.83;0.80;;;15.00;99.90;;;;;;4995217;28;20172;-68
2022/12/31 06:54:49;;;;;;;0.87;0.60;;;15.10;99.90;;;;;;4977775;28;20715;-66
2022/12/31 06:57:16;;;;;;;0.50;0.50;;;15.10;99.90;;;;;;4979443;28;20521;-66
2022/12/31 06:59:43;;;;;;;0.60;0.60;;;15.20;99.90;;;;;;4979074;28;20758;-68
2022/12/31 07:02:28;;;;;;;0.73;0.73;;;15.30;99.90;;;;;;4996848;28;20407;-70
2022/12/31 07:05:12;;;;;;;0.60;0.60;;;15.30;99.90;;;;;;5006596;28;20466;-68
2022/12/31 07:08:01;;;;;;;0.63;0.60;;;15.50;99.90;;;;;;4998755;28;20486;-67
2022/12/31 07:10:52;;;;;;;0.50;0.50;;;15.50;99.90;;;;;;5000868;28;20810;-68
2022/12/31 07:13:44;;;;;;;0.60;0.60;;;15.50;99.90;;;;;;4981426;28;20497;-68
2022/12/31 07:16:33;;;;;;;0.50;0.50;;;15.60;99.90;;;;;;4973836;28;20430;-68
2022/12/31 07:19:34;;;;;;;0.70;0.67;;;15.60;99.90;;;;;;4996577;28;20403;-69
2022/12/31 07:22:01;;;;;;;0.60;0.60;;;15.70;99.90;;;;;;4942968;28;20425;-69
2022/12/31 07:24:27;;;;;;;0.60;0.60;;;15.70;99.90;;;;;;4978456;28;20428;-67
2022/12/31 07:27:13;;;;;;;0.60;0.60;;;15.80;99.90;;;;;;4980063;28;20470;-67
2022/12/31 07:29:57;;;;;;;0.60;0.60;;;15.80;99.90;;;;;;4977209;28;20459;-68
2022/12/31 07:32:39;;;;;;;0.70;0.60;;;15.80;99.90;;;;;;4987375;28;20506;-68
2022/12/31 07:35:17;;;;;;;0.60;0.60;;;15.80;99.90;;;;;;4985955;28;20826;-67
2022/12/31 07:38:24;;;;;;;0.97;0.60;;;15.80;99.90;;;;;;4985563;28;20475;-69
2022/12/31 07:41:27;;;;;;;0.60;0.60;;;15.90;99.90;;;;;;4906529;29;20434;-67
2022/12/31 07:44:05;;;;;;;0.40;0.40;;;16.00;99.90;;;;;;4983561;28;20440;-68
2022/12/31 07:46:55;;;;;;;0.83;0.83;;;16.00;99.90;;;;;;4975277;28;20459;-67
2022/12/31 07:49:21;;;;;;;0.70;0.70;;;16.10;99.90;;;;;;4987350;28;20790;-68
2022/12/31 07:51:47;;;;;;;0.60;0.60;;;16.20;99.90;;;;;;4976147;28;20904;-67
2022/12/31 07:54:13;;;;;;;0.80;0.70;;;16.20;99.90;;;;;;4993507;28;20422;-67
2022/12/31 07:56:39;;;;;;;0.73;0.73;;;16.30;99.90;;;;;;4976391;28;20534;-67
2022/12/31 07:59:22;;;;;;;0.60;0.60;;;16.30;99.90;;;;;;4993701;28;20178;-67
2022/12/31 08:01:55;;;;;;;2.77;0.70;;;16.40;99.90;;;;;;4991660;28;20424;-69
2022/12/31 08:04:39;;;;;;;0.60;0.60;;;16.50;99.90;;;;;;4992961;28;20444;-71
2022/12/31 08:07:25;;;;;;;0.70;0.63;;;16.60;99.90;;;;;;4975873;28;20465;-71
2022/12/31 08:10:09;;;;;;;0.60;0.60;;;16.60;99.90;;;;;;4991468;28;20419;-72
2022/12/31 08:12:38;;;;;;;0.43;0.43;;;16.70;99.90;;;;;;4974909;28;20491;-68
2022/12/31 08:15:16;;;;;;;0.50;0.40;;;16.80;99.90;;;;;;4972987;28;20445;-67
2022/12/31 08:17:41;;;;;;;0.50;0.50;;;16.80;99.90;;;;;;4969759;28;20765;-66
2022/12/31 08:20:15;;;;;;;0.40;0.40;;;16.90;99.90;;;;;;4974086;28;20429;-63
2022/12/31 08:23:02;;;;;;;0.50;0.50;;;17.10;99.90;;;;;;4977540;28;20413;-67
2022/12/31 08:25:47;;;;;;;0.40;0.40;;;17.30;99.90;;;;;;4976365;28;20450;-66
2022/12/31 08:28:24;;;;;;;0.40;0.40;;;17.40;99.90;;;;;;4964820;28;20838;-65
2022/12/31 08:31:00;;;;;;;2.10;0.77;;;17.60;99.90;;;;;;4973467;28;20982;-65
2022/12/31 08:33:32;;;;;;;0.50;0.43;;;17.70;99.90;;;;;;4989082;28;20422;-70
2022/12/31 08:36:26;;;;;;;0.83;0.60;;;17.70;99.90;;;;;;4991547;28;20773;-71
2022/12/31 08:39:21;;;;;;;0.80;0.80;;;17.60;99.90;;;;;;4992856;28;20584;-71
2022/12/31 08:41:53;;;;;;;1.70;1.40;;;17.50;99.90;;;;;;4992855;28;20425;-69
2022/12/31 08:44:28;;;;;;;0.70;0.57;;;17.40;99.90;;;;;;4995275;28;20419;-67
2022/12/31 08:47:15;;;;;;;1.50;0.70;;;17.30;99.90;;;;;;4992953;28;20496;-69
2022/12/31 08:49:41;;;;;;;0.80;0.73;;;17.30;99.90;;;;;;4977356;28;20417;-66
2022/12/31 08:52:16;;;;;;;0.60;0.60;;;17.20;99.90;;;;;;4977402;28;20928;-67
2022/12/31 08:54:42;;;;;;;0.50;0.50;;;17.10;99.90;;;;;;4982873;28;20439;-68
2022/12/31 08:57:19;;;;;;;0.70;0.70;;;17.10;99.90;;;;;;4977773;28;20977;-67
2022/12/31 09:00:02;;;;;;;2.60;1.20;;;17.10;99.90;;;;;;4976729;28;20556;-65
2022/12/31 09:02:40;;;;;;;1.37;0.90;;;17.00;99.90;;;;;;4976718;28;20732;-66
2022/12/31 09:05:40;;;;;;;0.77;0.77;;;17.00;99.90;;;;;;4990396;28;20987;-68
2022/12/31 09:08:43;;;;;;;1.77;0.97;;;17.10;99.90;;;;;;4996610;28;20553;-65
2022/12/31 09:11:36;;;;;;;0.80;0.63;;;17.10;99.90;;;;;;4977312;28;20453;-65
2022/12/31 09:14:08;;;;;;;0.53;0.53;;;17.10;99.90;;;;;;4976750;28;21053;-68
2022/12/31 09:17:02;;;;;;;0.60;0.60;;;17.10;99.90;;;;;;4977104;28;20516;-69
2022/12/31 09:19:27;;;;;;;0.53;0.53;;;17.20;99.90;;;;;;4989154;28;20835;-67
2022/12/31 09:21:54;;;;;;;0.77;0.77;;;17.30;99.90;;;;;;4996098;28;20417;-70
2022/12/31 09:24:19;;;;;;;0.80;0.67;;;17.50;99.90;;;;;;4994812;28;20210;-65
2022/12/31 09:26:45;;;;;;;0.80;0.80;;;17.90;99.90;;;;;;4979422;28;20973;-69
2022/12/31 09:29:13;;;;;;;1.00;0.90;;;18.30;99.90;;;;;;4976561;28;20227;-66
2022/12/31 09:31:42;;;;;;;2.53;0.70;;;18.80;99.90;;;;;;4958462;28;20669;-69
2022/12/31 09:34:13;;;;;;;0.77;0.77;;;19.20;99.90;;;;;;4995404;28;20439;-68
2022/12/31 09:36:49;;;;;;;0.60;0.60;;;19.70;99.90;;;;;;4995766;28;20920;-69
2022/12/31 09:39:42;;;;;;;1.27;1.03;;;20.20;99.90;;;;;;4968998;28;20431;-67
2022/12/31 09:42:24;;;;;;;0.50;0.50;;;20.70;99.90;;;;;;4976339;28;20408;-69
2022/12/31 09:45:20;;;;;;;0.57;0.57;;;21.00;99.90;;;;;;4975952;28;20434;-66
2022/12/31 09:48:04;;;;;;;0.50;0.50;;;21.20;99.90;;;;;;4989516;28;20454;-62
2022/12/31 09:51:03;;;;;;;0.60;0.60;;;21.10;99.90;;;;;;4976176;28;20386;-67
2022/12/31 09:53:37;;;;;;;0.60;0.60;;;21.20;99.90;;;;;;4975649;28;20414;-67
2022/12/31 09:56:08;;;;;;;0.67;0.67;;;21.40;99.90;;;;;;4975450;28;20418;-66
2022/12/31 09:58:42;;;;;;;0.67;0.67;;;21.70;99.90;;;;;;4976197;28;20388;-71
2022/12/31 10:01:16;;;;;;;0.60;0.60;;;21.90;99.20;;;;;;4988914;28;20513;-67
2022/12/31 10:04:08;;;;;;;0.50;0.50;;;22.00;98.80;;;;;;4995097;28;20918;-71
2022/12/31 10:06:49;;;;;;;2.47;1.20;;;22.20;98.50;;;;;;4995537;28;20947;-67
2022/12/31 10:09:52;;;;;;;0.98;0.55;;;22.40;97.80;;;;;;4994813;28;20507;-68
2022/12/31 10:12:57;;;;;;;0.43;0.40;;;22.60;97.40;;;;;;4996092;28;20167;-68
2022/12/31 10:16:00;;;;;;;0.57;0.57;;;22.80;97.40;;;;;;4995387;28;20441;-69
2022/12/31 10:18:41;;;;;;;0.80;0.67;;;23.00;96.90;;;;;;4974918;28;20442;-68
2022/12/31 10:21:26;;;;;;;0.80;0.80;;;23.30;96.20;;;;;;4995583;28;20747;-64
2022/12/31 10:24:24;;;;;;;0.60;0.50;;;23.30;95.80;;;;;;4976190;28;20419;-70
2022/12/31 10:27:30;;;;;;;0.60;0.60;;;23.30;95.90;;;;;;4992252;28;20216;-68
2022/12/31 10:30:18;;;;;;;0.60;0.60;;;23.20;95.60;;;;;;4995662;28;20400;-67
2022/12/31 10:33:24;;;;;;;0.80;0.80;;;23.30;95.90;;;;;;4995050;28;20430;-69
2022/12/31 10:35:58;;;;;;;2.10;0.97;;;23.30;95.20;;;;;;4972828;28;20502;-69
2022/12/31 10:38:37;;;;;;;0.90;0.60;;;23.30;95.10;;;;;;4994393;28;20418;-67
2022/12/31 10:41:09;;;;;;;1.00;0.87;;;23.30;95.40;;;;;;4982751;28;20415;-66
2022/12/31 10:43:56;;;;;;;1.13;0.80;;;23.40;94.90;;;;;;4984607;28;20814;-68
2022/12/31 10:46:36;;;;;;;0.50;0.50;;;23.60;94.50;;;;;;4988332;28;20530;-65
2022/12/31 10:49:32;;;;;;;0.80;0.50;;;23.70;94.40;;;;;;4990357;28;20413;-66
2022/12/31 10:52:34;;;;;;;0.60;0.60;;;23.70;94.10;;;;;;4988759;28;20419;-69
2022/12/31 10:55:23;;;;;;;0.70;0.70;;;23.80;93.90;;;;;;4975022;28;20442;-68
2022/12/31 10:58:03;;;;;;;1.27;0.70;;;23.80;93.60;;;;;;4975401;28;20408;-67
2022/12/31 11:00:34;;;;;;;0.57;0.57;;;23.60;93.40;;;;;;4975359;28;20502;-71
2022/12/31 11:03:22;;;;;;;0.90;0.90;;;23.30;94.00;;;;;;4975349;28;20404;-70
2022/12/31 11:06:29;;;;;;;0.80;0.80;;;23.20;93.80;;;;;;4986800;28;20508;-65
2022/12/31 11:09:13;;;;;;;0.70;0.70;;;23.10;94.20;;;;;;4994251;28;20481;-67
2022/12/31 11:12:02;;;;;;;0.70;0.70;;;23.10;93.90;;;;;;4994289;28;20410;-65
2022/12/31 11:14:57;;;;;;;0.60;0.60;;;22.90;94.00;;;;;;4993961;28;20557;-69
2022/12/31 11:17:56;;;;;;;0.57;0.57;;;22.50;94.20;;;;;;4993424;28;20448;-70
2022/12/31 11:20:54;;;;;;;0.67;0.63;;;22.10;94.80;;;;;;4975773;28;20395;-65
2022/12/31 11:23:34;;;;;;;0.60;0.60;;;21.80;95.30;;;;;;4986241;28;20422;-67
2022/12/31 11:26:17;;;;;;;0.60;0.50;;;21.40;95.90;;;;;;4993764;28;20960;-68
2022/12/31 11:29:20;;;;;;;0.47;0.47;;;21.10;95.90;;;;;;4987962;28;20422;-69
2022/12/31 11:32:01;;;;;;;0.90;0.63;;;20.80;96.50;;;;;;4974520;28;20419;-67
2022/12/31 11:34:48;;;;;;;0.83;0.83;;;20.60;97.00;;;;;;4983072;28;20526;-66
2022/12/31 11:37:32;;;;;;;0.70;0.70;;;20.50;96.50;;;;;;4990862;28;20408;-66
2022/12/31 11:40:06;;;;;;;0.73;0.73;;;20.40;96.50;;;;;;4994040;28;20399;-67
2022/12/31 11:42:58;;;;;;;0.70;0.60;;;20.30;96.90;;;;;;4975887;28;20423;-66
2022/12/31 11:45:45;;;;;;;0.53;0.53;;;20.20;96.70;;;;;;4989315;28;20466;-66
2022/12/31 11:48:40;;;;;;;0.60;0.60;;;20.10;96.90;;;;;;4990856;28;20436;-66
2022/12/31 11:51:38;;;;;;;0.70;0.70;;;20.00;97.20;;;;;;4974736;28;20392;-66
2022/12/31 11:54:41;;;;;;;0.57;0.57;;;20.00;97.50;;;;;;4984425;28;20435;-67
2022/12/31 11:57:41;;;;;;;1.43;0.70;;;19.90;97.60;;;;;;4974411;28;20410;-66
2022/12/31 12:00:22;;;;;;;0.73;0.73;;;19.90;97.20;;;;;;4973416;28;20422;-66
2022/12/31 12:02:50;;;;;;;0.70;0.50;;;19.90;97.50;;;;;;4982067;28;20397;-67
2022/12/31 12:05:20;;;;;;;0.60;0.60;;;19.80;97.30;;;;;;4993243;28;20461;-66
2022/12/31 12:07:47;;;;;;;0.50;0.50;;;19.80;97.20;;;;;;4993101;28;20553;-64
2022/12/31 12:10:32;;;;;;;0.53;0.53;;;19.80;97.70;;;;;;4982090;28;20419;-68
2022/12/31 12:12:58;;;;;;;0.50;0.50;;;19.70;97.80;;;;;;4956439;28;20423;-68
2022/12/31 12:15:35;;;;;;;0.67;0.67;;;19.70;97.90;;;;;;4958557;28;20521;-65
2022/12/31 12:18:13;;;;;;;1.03;0.73;;;19.70;97.80;;;;;;4964428;28;20439;-65
2022/12/31 12:20:40;;;;;;;0.50;0.40;;;19.70;97.90;;;;;;4983977;28;20443;-66
2022/12/31 12:23:35;;;;;;;1.00;1.00;;;19.70;97.70;;;;;;4983831;28;20435;-67
2022/12/31 12:26:01;;;;;;;0.63;0.63;;;19.80;97.90;;;;;;4958333;28;20430;-65
2022/12/31 12:28:29;;;;;;;1.00;1.00;;;19.80;97.70;;;;;;4997504;28;20419;-65
2022/12/31 12:31:02;;;;;;;0.60;0.50;;;19.80;97.60;;;;;;4981283;28;20420;-62
2022/12/31 12:33:39;;;;;;;0.70;0.70;;;19.80;97.50;;;;;;4985323;28;20930;-61
2022/12/31 12:36:07;;;;;;;0.90;0.67;;;19.80;97.40;;;;;;4987992;28;20498;-62
2022/12/31 12:38:33;;;;;;;0.80;0.80;;;19.80;97.60;;;;;;4987534;28;20896;-64
2022/12/31 12:41:01;;;;;;;1.23;0.73;;;19.90;97.80;;;;;;4987888;28;20421;-61
2022/12/31 12:43:33;;;;;;;0.57;0.57;;;19.90;97.80;;;;;;4985943;28;20275;-64
2022/12/31 12:46:03;;;;;;;0.40;0.40;;;19.80;97.70;;;;;;4995676;28;20422;-69
2022/12/31 12:48:44;;;;;;;0.60;0.47;;;19.80;97.70;;;;;;4991430;28;20827;-67
2022/12/31 12:51:36;;;;;;;0.77;0.60;;;19.80;97.80;;;;;;4982427;28;20441;-67
2022/12/31 12:54:42;;;;;;;0.50;0.50;;;19.70;97.80;;;;;;4980744;28;20504;-69
2022/12/31 12:57:23;;;;;;;0.60;0.60;;;19.70;97.80;;;;;;4977958;28;20415;-69
2022/12/31 13:00:06;;;;;;;0.60;0.60;;;19.60;98.00;;;;;;4977969;28;20428;-68
2022/12/31 13:02:56;;;;;;;0.93;0.93;;;19.70;98.00;;;;;;4993066;28;20438;-69
2022/12/31 13:05:45;;;;;;;0.57;0.57;;;19.70;98.00;;;;;;4992964;28;20451;-70
2022/12/31 13:08:29;;;;;;;0.70;0.70;;;19.70;97.80;;;;;;4991195;28;20459;-68
2022/12/31 13:11:17;;;;;;;1.37;0.83;;;19.70;97.80;;;;;;4972919;28;20419;-72
2022/12/31 13:13:45;;;;;;;0.57;0.57;;;19.70;98.10;;;;;;4995650;28;20445;-69
2022/12/31 13:16:37;;;;;;;0.60;0.50;;;19.70;98.00;;;;;;4996071;28;20422;-69
2022/12/31 13:19:31;;;;;;;0.77;0.77;;;19.70;97.90;;;;;;4995521;28;20426;-67
2022/12/31 13:22:20;;;;;;;0.53;0.53;;;19.70;97.80;;;;;;4994849;28;20417;-72
2022/12/31 13:24:59;;;;;;;1.13;0.70;;;19.60;97.80;;;;;;4990632;28;20495;-68
2022/12/31 13:27:41;;;;;;;0.80;0.80;;;19.70;97.90;;;;;;4994067;28;20490;-68
2022/12/31 13:30:17;;;;;;;0.73;0.73;;;19.60;98.00;;;;;;4994785;28;20427;-70
2022/12/31 13:32:47;;;;;;;0.50;0.50;;;19.60;98.00;;;;;;4995621;28;20430;-67
2022/12/31 13:35:25;;;;;;;2.33;0.77;;;19.60;98.00;;;;;;4994995;28;20879;-66
2022/12/31 13:38:00;;;;;;;0.63;0.63;;;19.60;98.00;;;;;;4990294;28;20458;-67
2022/12/31 13:40:31;;;;;;;1.10;1.10;;;19.50;98.20;;;;;;4977620;28;20439;-67
2022/12/31 13:43:02;;;;;;;0.90;0.90;;;19.40;98.40;;;;;;4933970;29;20435;-67
2022/12/31 13:45:35;;;;;;;1.07;0.70;;;19.40;98.40;;;;;;4935229;29;20433;-66
2022/12/31 13:48:09;;;;;;;0.80;0.70;;;19.30;98.30;;;;;;4949953;29;20464;-65
2022/12/31 13:50:52;;;;;;;0.60;0.60;;;19.30;98.50;;;;;;4935316;29;20517;-67
2022/12/31 13:53:39;;;;;;;0.90;0.80;;;19.20;98.60;;;;;;4949965;29;20988;-67
2022/12/31 13:56:18;;;;;;;1.70;1.30;;;19.20;98.50;;;;;;4945161;28;20425;-70
2022/12/31 13:58:52;;;;;;;1.00;0.90;;;19.10;99.00;;;;;;4942306;29;20429;-69
2022/12/31 14:01:24;;;;;;;0.70;0.70;;;19.10;99.00;;;;;;4952607;29;20506;-69
2022/12/31 14:04:14;;;;;;;0.57;0.57;;;19.00;99.00;;;;;;4950973;29;20868;-69
2022/12/31 14:07:13;;;;;;;1.60;0.90;;;18.90;99.00;;;;;;4953186;29;20468;-68
2022/12/31 14:09:39;;;;;;;1.43;1.03;;;18.90;99.10;;;;;;4938610;29;20410;-66
2022/12/31 14:12:18;;;;;;;1.13;1.03;;;18.90;99.30;;;;;;4951818;29;20471;-65
2022/12/31 14:14:52;;;;;;;0.60;0.60;;;18.90;99.20;;;;;;4975881;28;20681;-66
2022/12/31 14:17:35;;;;;;;0.83;0.83;;;18.80;99.20;;;;;;4983688;28;20416;-66
2022/12/31 14:20:19;;;;;;;0.80;0.80;;;18.70;99.30;;;;;;4988534;28;20455;-65
2022/12/31 14:22:58;;;;;;;0.80;0.80;;;18.70;99.40;;;;;;4987502;28;20414;-65
2022/12/31 14:25:35;;;;;;;0.70;0.70;;;18.70;99.60;;;;;;4984203;28;20461;-64
2022/12/31 14:28:05;;;;;;;0.60;0.60;;;18.60;99.50;;;;;;4979402;28;20494;-64
2022/12/31 14:30:37;;;;;;;0.70;0.70;;;18.60;99.70;;;;;;4976987;28;20499;-64
2022/12/31 14:33:21;;;;;;;1.10;1.03;;;18.50;99.70;;;;;;4985350;28;21107;-67
2022/12/31 14:35:54;;;;;;;1.10;1.10;;;18.50;99.80;;;;;;4975025;28;20906;-67
2022/12/31 14:38:35;;;;;;;1.20;1.10;;;18.40;99.90;;;;;;4979175;28;20426;-65
2022/12/31 14:41:35;;;;;;;1.50;0.80;;;18.30;99.90;;;;;;4993018;28;20458;-66
2022/12/31 14:44:22;;;;;;;0.70;0.70;;;18.30;99.90;;;;;;4903586;28;20462;-67
2022/12/31 14:46:58;;;;;;;1.27;1.10;;;18.20;99.90;;;;;;4993665;28;20513;-66
2022/12/31 14:49:43;;;;;;;0.77;0.77;;;18.20;99.90;;;;;;4993348;28;20520;-66
2022/12/31 14:52:14;;;;;;;0.83;0.83;;;18.10;99.90;;;;;;4985458;28;20900;-67
2022/12/31 14:54:40;;;;;;;0.73;0.73;;;18.10;99.90;;;;;;4991230;28;20437;-67
2022/12/31 14:57:16;;;;;;;1.30;0.70;;;18.10;99.90;;;;;;4994186;28;20430;-68
2022/12/31 14:59:55;;;;;;;1.03;1.03;;;18.10;99.90;;;;;;4987271;28;20418;-66
2022/12/31 15:02:30;;;;;;;0.80;0.80;;;18.20;99.90;;;;;;4992725;28;20429;-68
2022/12/31 15:05:10;;;;;;;0.90;0.90;;;18.20;99.90;;;;;;4985199;28;20437;-66
2022/12/31 15:08:20;;;;;;;0.90;0.90;;;18.20;99.90;;;;;;4989798;28;20450;-68
2022/12/31 15:11:20;;;;;;;0.70;0.70;;;18.20;99.90;;;;;;4952997;28;20482;-68
2022/12/31 15:14:00;;;;;;;1.53;1.37;;;18.20;99.90;;;;;;4993425;28;20860;-67
2022/12/31 15:16:48;;;;;;;1.20;1.20;;;18.10;99.90;;;;;;4990770;28;20427;-66
2022/12/31 15:19:30;;;;;;;0.80;0.80;;;18.00;99.90;;;;;;4993685;28;20428;-69
2022/12/31 15:22:24;;;;;;;1.00;0.90;;;18.00;99.90;;;;;;4989700;28;20434;-68
2022/12/31 15:24:50;;;;;;;0.63;0.63;;;17.90;99.90;;;;;;4963398;28;20445;-70
2022/12/31 15:27:44;;;;;;;0.97;0.60;;;17.90;99.90;;;;;;4990824;28;20954;-68
2022/12/31 15:30:29;;;;;;;0.73;0.70;;;17.90;99.90;;;;;;4966443;28;20655;-70
2022/12/31 15:32:57;;;;;;;1.47;1.37;;;17.80;99.90;;;;;;4988384;28;20724;-70
2022/12/31 15:35:43;;;;;;;0.73;0.73;;;17.80;99.90;;;;;;4993569;28;20477;-72
2022/12/31 15:38:14;;;;;;;4.60;1.30;;;17.80;99.90;;;;;;4993882;28;20420;-71
2022/12/31 15:40:45;;;;;;;1.90;1.10;;;17.80;99.90;;;;;;4992144;28;20411;-71
2022/12/31 15:43:14;;;;;;;1.27;1.17;;;17.70;99.90;;;;;;4985887;28;20472;-70
2022/12/31 15:45:41;;;;;;;1.03;0.73;;;17.70;99.90;;;;;;4993672;28;20411;-69
2022/12/31 15:48:15;;;;;;;0.80;0.80;;;17.60;99.90;;;;;;4993135;28;20464;-71
2022/12/31 15:50:43;;;;;;;0.87;0.87;;;17.70;99.90;;;;;;4993277;28;20425;-72
2022/12/31 15:53:28;;;;;;;1.23;0.60;;;17.70;99.90;;;;;;4985780;28;20425;-70
2022/12/31 15:55:56;;;;;;;3.73;2.00;;;17.70;99.90;;;;;;4973549;28;20441;-69
2022/12/31 15:58:25;;;;;;;8.47;7.53;;;17.70;99.90;;;;;;4973557;28;20439;-68
2022/12/31 16:01:22;;;;;;;5.83;4.30;;;17.70;99.90;;;;;;4983488;28;20423;-67
2022/12/31 16:03:55;;;;;;;1.53;1.03;;;17.60;99.90;;;;;;4985711;28;20461;-68
2022/12/31 16:06:21;;;;;;;0.90;0.90;;;17.50;99.90;;;;;;4969294;28;20789;-68
2022/12/31 16:08:48;;;;;;;1.90;1.50;;;17.60;99.90;;;;;;4973524;28;20425;-68
2022/12/31 16:11:15;;;;;;;2.00;1.17;;;17.60;99.90;;;;;;4992688;28;20747;-68
2022/12/31 16:13:46;;;;;;;15.20;9.70;;;17.60;99.90;;;;;;4991985;28;20426;-68
2022/12/31 16:16:22;;;;;;;112.27;55.93;;;17.50;99.90;;;;;;4989819;28;20527;-71
2022/12/31 16:18:49;;;;;;;14.27;9.43;;;17.50;99.90;;;;;;4983417;28;20427;-70
2022/12/31 16:21:32;;;;;;;2.87;2.20;;;17.40;99.90;;;;;;4985155;28;20770;-70
2022/12/31 16:24:01;;;;;;;1.60;1.20;;;17.30;99.90;;;;;;4988918;28;20449;-72
2022/12/31 16:26:50;;;;;;;4.70;3.40;;;17.30;99.90;;;;;;4992854;28;20445;-69
2022/12/31 16:29:18;;;;;;;1.30;1.13;;;17.30;99.90;;;;;;4993195;28;20480;-68
2022/12/31 16:31:45;;;;;;;1.40;1.30;;;17.20;99.90;;;;;;4982893;28;20410;-71
2022/12/31 16:34:17;;;;;;;2.50;2.20;;;17.10;99.90;;;;;;4986904;28;21019;-71
2022/12/31 16:36:55;;;;;;;2.73;1.90;;;17.10;99.90;;;;;;4974053;28;20421;-76
2022/12/31 16:39:25;;;;;;;2.10;2.00;;;17.10;99.90;;;;;;4960401;28;20770;-71
2022/12/31 16:42:05;;;;;;;2.43;2.13;;;17.00;99.90;;;;;;4979888;28;20417;-68
2022/12/31 16:44:31;;;;;;;2.17;1.97;;;17.00;99.90;;;;;;4956309;28;20764;-72
2022/12/31 16:46:59;;;;;;;3.40;1.60;;;16.90;99.90;;;;;;4980072;28;20452;-70
2022/12/31 16:49:27;;;;;;;4.70;2.83;;;16.90;99.90;;;;;;4991323;28;20173;-74
2022/12/31 16:51:58;;;;;;;1.60;1.50;;;16.80;99.90;;;;;;4976299;28;20431;-64
2022/12/31 16:54:33;;;;;;;1.73;1.30;;;16.80;99.90;;;;;;4978077;28;20451;-70
2022/12/31 16:56:59;;;;;;;1.53;1.40;;;16.80;99.90;;;;;;4973714;28;20416;-69
2022/12/31 16:59:43;;;;;;;1.73;1.40;;;16.80;99.90;;;;;;4979911;28;20438;-69
2022/12/31 17:02:17;;;;;;;7.33;5.07;;;16.90;99.90;;;;;;4991005;28;20434;-71
2022/12/31 17:04:51;;;;;;;3.90;3.10;;;17.00;99.90;;;;;;4985618;28;20533;-71
2022/12/31 17:07:29;;;;;;;1.53;1.43;;;17.00;99.90;;;;;;4997171;28;20448;-75
2022/12/31 17:10:24;;;;;;;1.27;1.17;;;17.00;99.90;;;;;;4996155;28;20389;-66
2022/12/31 17:13:02;;;;;;;2.83;2.53;;;17.00;99.90;;;;;;4983946;28;20791;-66
2022/12/31 17:15:48;;;;;;;5.27;2.73;;;17.10;99.90;;;;;;4977257;28;21017;-66
2022/12/31 17:18:18;;;;;;;3.77;3.37;;;17.10;99.90;;;;;;4979811;28;20460;-67
2022/12/31 17:20:45;;;;;;;2.33;2.13;;;17.10;99.90;;;;;;4997782;28;20403;-69
2022/12/31 17:23:23;;;;;;;2.70;2.50;;;17.00;99.90;;;;;;4996409;28;20507;-68
2022/12/31 17:25:57;;;;;;;2.80;2.60;;;17.00;99.90;;;;;;4997275;28;20423;-65
2022/12/31 17:28:24;;;;;;;2.30;2.20;;;17.00;99.90;;;;;;4992467;28;20463;-68
2022/12/31 17:30:50;;;;;;;2.57;2.23;;;16.90;99.90;;;;;;4996839;28;20505;-66
2022/12/31 17:33:18;;;;;;;2.87;2.00;;;16.90;99.90;;;;;;4992267;28;20413;-63
2022/12/31 17:35:45;;;;;;;2.77;2.03;;;16.80;99.90;;;;;;4976478;28;20501;-71
2022/12/31 17:38:22;;;;;;;1.40;1.27;;;16.80;99.90;;;;;;4976731;28;20476;-68
2022/12/31 17:40:58;;;;;;;1.93;1.80;;;16.80;99.90;;;;;;4993233;28;20418;-70
2022/12/31 17:43:26;;;;;;;1.83;1.63;;;16.80;99.90;;;;;;4993716;28;20443;-68
2022/12/31 17:45:53;;;;;;;2.07;1.93;;;16.70;99.90;;;;;;4960607;28;20420;-67
2022/12/31 17:48:21;;;;;;;2.00;1.80;;;16.70;99.90;;;;;;4977019;28;20519;-65
2022/12/31 17:50:49;;;;;;;2.13;1.93;;;16.70;99.90;;;;;;4976537;28;20406;-65
2022/12/31 17:53:15;;;;;;;2.60;2.40;;;16.70;99.90;;;;;;4979039;28;20420;-68
2022/12/31 17:55:44;;;;;;;3.17;1.60;;;16.60;99.90;;;;;;4995479;28;20448;-63
2022/12/31 17:58:22;;;;;;;1.20;1.10;;;16.60;99.90;;;;;;4995320;28;20512;-65
2022/12/31 18:00:47;;;;;;;1.80;1.70;;;16.50;99.90;;;;;;4993261;28;20422;-64
2022/12/31 18:03:13;;;;;;;1.27;1.20;;;16.60;99.90;;;;;;4975829;28;20748;-66
2022/12/31 18:05:38;;;;;;;12.23;9.00;;;16.60;99.90;;;;;;4980493;28;20240;-66
2022/12/31 18:08:04;;;;;;;3.00;2.63;;;16.60;99.90;;;;;;4985101;28;20203;-67
2022/12/31 18:10:34;;;;;;;66.13;37.43;;;16.70;99.90;;;;;;4995039;28;20694;-68
2022/12/31 18:13:03;;;;;;;8.40;6.87;;;16.70;99.90;;;;;;4995062;28;20466;-69
2022/12/31 18:15:29;;;;;;;5.47;4.70;;;16.80;99.90;;;;;;4993292;28;20443;-68
2022/12/31 18:17:55;;;;;;;10.10;6.77;;;16.90;99.90;;;;;;4995096;28;20420;-69
2022/12/31 18:20:21;;;;;;;11.53;7.83;;;16.90;99.90;;;;;;4995213;28;20177;-68
2022/12/31 18:22:47;;;;;;;100.80;55.60;;;16.90;99.90;;;;;;4994638;28;20232;-70
2022/12/31 18:25:20;;;;;;;11.63;8.20;;;16.90;99.90;;;;;;4995028;28;20432;-69
2022/12/31 18:27:46;;;;;;;75.27;46.20;;;16.90;99.90;;;;;;4977573;28;20198;-72
2022/12/31 18:30:12;;;;;;;6.63;5.10;;;16.90;99.90;;;;;;4994123;28;20437;-68
2022/12/31 18:32:39;;;;;;;4.43;3.00;;;16.90;99.90;;;;;;4993415;28;20443;-71
2022/12/31 18:35:12;;;;;;;2.87;2.47;;;16.80;99.90;;;;;;4989457;28;20867;-66
2022/12/31 18:37:37;;;;;;;4.63;4.23;;;16.80;99.90;;;;;;4975900;28;20836;-70
2022/12/31 18:40:03;;;;;;;1.57;1.43;;;16.80;99.90;;;;;;4986584;28;20513;-69